createdAt,value
2022-08-05T00:04:08.184Z,19.93
2022-08-05T00:09:12.880Z,19.86
2022-08-05T00:14:17.086Z,19.80
2022-08-05T00:19:19.447Z,19.73
2022-08-05T00:24:31.064Z,19.66
2022-08-05T00:29:38.041Z,19.59
2022-08-05T00:35:03.740Z,19.55
2022-08-05T00:40:07.169Z,19.51
2022-08-05T00:45:13.469Z,19.50
2022-08-05T00:50:15.766Z,19.45
2022-08-05T00:55:18.895Z,19.42
2022-08-05T01:00:21.946Z,19.39
2022-08-05T01:05:28.028Z,19.31
2022-08-05T01:11:01.126Z,19.24
2022-08-05T01:16:05.281Z,19.21
2022-08-05T01:21:38.710Z,19.16
2022-08-05T01:26:59.430Z,19.09
2022-08-05T01:32:06.937Z,19.03
2022-08-05T01:37:39.701Z,18.95
2022-08-05T01:42:47.829Z,18.88
2022-08-05T01:47:50.298Z,18.82
2022-08-05T01:53:00.605Z,18.72
2022-08-05T01:58:10.983Z,18.62
2022-08-05T02:03:24.180Z,18.57
2022-08-05T02:08:33.201Z,18.48
2022-08-05T02:13:53.466Z,18.39
2022-08-05T02:19:01.343Z,18.31
2022-08-05T02:24:11.319Z,18.27
2022-08-05T02:29:21.682Z,18.25
2022-08-05T02:34:30.224Z,18.18
2022-08-05T02:39:36.502Z,18.09
2022-08-05T02:44:44.544Z,18.05
2022-08-05T02:49:46.832Z,17.98
2022-08-05T02:54:50.678Z,17.92
2022-08-05T02:59:55.115Z,17.86
2022-08-05T03:04:58.196Z,17.80
2022-08-05T03:10:00.250Z,17.75
2022-08-05T03:15:06.910Z,17.72
2022-08-05T03:20:13.526Z,17.74
2022-08-05T03:25:33.343Z,17.73
2022-08-05T03:30:41.059Z,17.73
2022-08-05T03:35:45.739Z,17.75
2022-08-05T03:40:48.573Z,17.79
2022-08-05T03:45:57.431Z,17.84
2022-08-05T03:52:39.198Z,17.93
2022-08-05T03:56:42.955Z,18.04
2022-08-05T04:01:50.899Z,18.11
2022-08-05T04:06:54.619Z,18.33
2022-08-05T04:11:58.146Z,18.54
2022-08-05T04:17:00.340Z,19.52
2022-08-05T04:22:05.864Z,21.05
2022-08-05T04:27:13.193Z,22.37
2022-08-05T04:32:20.033Z,23.46
2022-08-05T04:38:01.391Z,24.35
2022-08-05T04:42:55.361Z,25.17
2022-08-05T04:48:18.501Z,25.68
2022-08-05T04:53:33.640Z,26.19
2022-08-05T04:58:37.483Z,26.45
2022-08-05T05:03:42.153Z,26.66
2022-08-05T05:08:44.457Z,26.69
2022-08-05T05:13:52.677Z,26.67
2022-08-05T05:19:18.873Z,26.00
2022-08-05T05:24:21.479Z,25.10
2022-08-05T05:29:23.423Z,24.50
2022-08-05T05:34:26.982Z,24.13
2022-08-05T05:39:34.480Z,23.90
2022-08-05T05:44:42.986Z,23.76
2022-08-05T05:49:48.067Z,23.73
2022-08-05T05:55:00.684Z,23.75
2022-08-05T06:00:10.225Z,23.87
2022-08-05T06:05:27.817Z,23.98
2022-08-05T06:10:36.421Z,24.10
2022-08-05T06:16:29.065Z,24.23
2022-08-05T06:21:00.908Z,24.47
2022-08-05T06:26:21.031Z,24.67
2022-08-05T06:31:30.577Z,24.93
2022-08-05T06:36:53.579Z,25.23
2022-08-05T06:42:01.658Z,25.48
2022-08-05T06:47:06.282Z,25.63
2022-08-05T06:52:37.650Z,25.71
2022-08-05T06:58:02.466Z,25.80
2022-08-05T07:03:00.202Z,25.97
2022-08-05T07:08:05.578Z,26.28
2022-08-05T07:13:58.255Z,26.57
2022-08-05T07:18:52.946Z,26.78
2022-08-05T07:23:57.670Z,26.96
2022-08-05T07:29:10.144Z,27.15
2022-08-05T07:34:21.201Z,27.45
2022-08-05T07:40:26.933Z,27.63
2022-08-05T07:44:51.410Z,27.78
2022-08-05T07:49:54.706Z,27.87
2022-08-05T07:54:57.124Z,28.03
2022-08-05T08:00:00.188Z,28.32
2022-08-05T08:05:11.412Z,28.49
2022-08-05T08:10:13.598Z,28.64
2022-08-05T08:15:28.087Z,29.00
2022-08-05T08:21:02.098Z,29.21
2022-08-05T08:26:09.131Z,29.47
2022-08-05T08:31:15.009Z,29.67
2022-08-05T08:36:40.183Z,29.90
2022-08-05T08:42:08.958Z,29.99
2022-08-05T08:48:05.583Z,30.08
2022-08-05T08:52:54.047Z,30.29
2022-08-05T08:58:03.312Z,30.39
2022-08-05T09:03:06.955Z,30.48
2022-08-05T09:08:09.931Z,30.53
2022-08-05T09:13:16.484Z,30.69
2022-08-05T09:18:19.286Z,30.88
2022-08-05T09:23:22.101Z,31.09
2022-08-05T09:28:32.350Z,31.24
2022-08-05T09:33:50.898Z,31.43
2022-08-05T09:39:18.135Z,31.64
2022-08-05T09:44:40.150Z,31.73
2022-08-05T09:50:01.113Z,31.93
2022-08-05T09:55:57.837Z,32.19
2022-08-05T10:00:30.687Z,32.31
2022-08-05T10:05:33.942Z,32.44
2022-08-05T10:10:48.302Z,32.51
2022-08-05T10:15:55.336Z,32.54
2022-08-05T10:21:08.473Z,32.69
2022-08-05T10:26:15.585Z,32.87
2022-08-05T10:32:47.206Z,32.99
2022-08-05T10:36:45.871Z,33.02
2022-08-05T10:42:11.497Z,33.14
2022-08-05T10:47:26.107Z,33.08
2022-08-05T10:52:53.537Z,33.32
2022-08-05T10:58:11.953Z,33.52
2022-08-05T11:03:25.731Z,33.80
2022-08-05T11:08:37.918Z,33.90
2022-08-05T11:13:54.784Z,34.02
2022-08-05T11:20:16.949Z,34.09
2022-08-05T11:26:05.070Z,34.43
2022-08-05T11:30:59.468Z,34.92
2022-08-05T11:36:08.462Z,35.05
2022-08-05T11:41:56.266Z,35.30
2022-08-05T11:47:09.911Z,35.43
2022-08-05T11:52:14.686Z,35.40
2022-08-05T11:58:08.719Z,35.34
2022-08-05T12:02:53.963Z,35.40
2022-08-05T12:08:03.664Z,35.30
2022-08-05T12:13:47.786Z,35.27
2022-08-05T12:18:48.978Z,35.12
2022-08-05T12:24:07.982Z,34.95
2022-08-05T12:29:22.554Z,34.77
2022-08-05T12:34:35.709Z,34.91
2022-08-05T12:39:39.206Z,34.96
2022-08-05T12:44:43.185Z,34.97
2022-08-05T12:50:04.009Z,35.04
2022-08-05T12:55:22.100Z,35.15
2022-08-05T13:02:02.060Z,35.15
2022-08-05T13:05:58.110Z,35.12
2022-08-05T13:11:04.239Z,35.14
2022-08-05T13:16:16.655Z,35.20
2022-08-05T13:21:22.621Z,35.33
2022-08-05T13:26:31.223Z,35.35
2022-08-05T13:31:34.027Z,35.35
2022-08-05T13:36:57.139Z,35.35
2022-08-05T13:41:59.053Z,35.38
2022-08-05T13:47:04.934Z,35.34
2022-08-05T13:52:29.604Z,35.26
2022-08-05T13:57:50.775Z,35.06
2022-08-05T14:02:55.531Z,35.02
2022-08-05T14:08:03.252Z,35.14
2022-08-05T14:13:09.509Z,35.25
2022-08-05T14:18:18.341Z,35.31
2022-08-05T14:23:36.431Z,35.38
2022-08-05T14:28:52.183Z,35.43
2022-08-05T14:33:59.850Z,35.46
2022-08-05T14:39:05.395Z,35.39
2022-08-05T14:44:20.023Z,35.12
2022-08-05T14:49:56.291Z,35.22
2022-08-05T14:54:52.669Z,35.34
2022-08-05T14:59:58.524Z,35.41
2022-08-05T15:05:00.771Z,35.30
2022-08-05T15:10:12.080Z,35.39
2022-08-05T15:15:15.776Z,35.35
2022-08-05T15:20:19.371Z,35.18
2022-08-05T15:25:51.501Z,35.03
2022-08-05T15:30:53.013Z,34.96
2022-08-05T15:35:55.438Z,34.85
2022-08-05T15:41:23.160Z,34.77
2022-08-05T15:46:25.246Z,34.85
2022-08-05T15:52:09.706Z,34.90
2022-08-05T15:56:50.109Z,34.93
2022-08-05T16:01:54.481Z,34.83
2022-08-05T16:07:01.584Z,34.81
2022-08-05T16:12:03.828Z,34.90
2022-08-05T16:17:07.979Z,34.90
2022-08-05T16:22:15.296Z,34.89
2022-08-05T16:27:17.435Z,34.79
2022-08-05T16:32:28.722Z,34.73
2022-08-05T16:38:03.685Z,34.64
2022-08-05T16:42:56.580Z,34.57
2022-08-05T16:48:02.920Z,34.41
2022-08-05T16:53:12.384Z,34.31
2022-08-05T16:58:26.370Z,35.00
2022-08-05T17:03:28.530Z,35.71
2022-08-05T17:08:52.988Z,36.14
2022-08-05T17:14:05.582Z,36.14
2022-08-05T17:19:09.559Z,35.97
2022-08-05T17:24:28.393Z,35.97
2022-08-05T17:29:41.164Z,35.53
2022-08-05T17:34:48.230Z,34.69
2022-08-05T17:39:55.747Z,33.74
2022-08-05T17:44:58.174Z,32.93
2022-08-05T17:50:10.174Z,32.18
2022-08-05T17:55:12.988Z,31.45
2022-08-05T18:00:15.378Z,30.80
2022-08-05T18:05:18.888Z,30.24
2022-08-05T18:10:21.717Z,29.70
2022-08-05T18:15:26.753Z,29.21
2022-08-05T18:20:32.098Z,28.76
2022-08-05T18:25:34.621Z,28.30
2022-08-05T18:30:39.166Z,27.77
2022-08-05T18:35:59.682Z,27.55
2022-08-05T18:41:53.758Z,27.26
2022-08-05T18:46:50.486Z,27.56
2022-08-05T18:52:11.035Z,28.13
2022-08-05T18:57:15.322Z,28.48
2022-08-05T19:02:26.766Z,28.47
2022-08-05T19:07:36.308Z,28.35
2022-08-05T19:12:48.435Z,28.19
2022-08-05T19:18:08.689Z,28.06
2022-08-05T19:24:04.286Z,27.94
2022-08-05T19:28:44.080Z,27.73
2022-08-05T19:33:56.439Z,27.56
2022-08-05T19:39:02.015Z,27.33
2022-08-05T19:44:13.702Z,27.19
2022-08-05T19:49:26.024Z,27.02
2022-08-05T19:54:39.501Z,26.88
2022-08-05T19:59:54.549Z,26.76
2022-08-05T20:05:43.225Z,26.63
2022-08-05T20:11:01.317Z,26.44
2022-08-05T20:16:07.801Z,26.26
2022-08-05T20:21:11.413Z,26.16
2022-08-05T20:26:19.598Z,26.02
2022-08-05T20:31:36.861Z,25.90
2022-08-05T20:36:51.439Z,25.73
2022-08-05T20:42:13.437Z,25.59
2022-08-05T20:47:32.220Z,25.51
2022-08-05T20:52:46.401Z,25.37
2022-08-05T20:57:53.851Z,25.30
2022-08-05T21:03:08.860Z,25.22
2022-08-05T21:08:14.931Z,25.18
2022-08-05T21:13:47.909Z,25.14
2022-08-05T21:19:03.625Z,25.03
2022-08-05T21:24:19.519Z,24.91
2022-08-05T21:29:40.594Z,24.87
2022-08-05T21:35:08.887Z,24.80
2022-08-05T21:40:26.247Z,24.71
2022-08-05T21:45:51.816Z,24.54
2022-08-05T21:50:53.207Z,24.43
2022-08-05T21:56:09.655Z,24.46
2022-08-05T22:01:23.935Z,24.48
2022-08-05T22:06:34.887Z,24.51
2022-08-05T22:11:37.848Z,24.48
2022-08-05T22:16:41.770Z,24.28
2022-08-05T22:21:53.991Z,23.57
2022-08-05T22:27:17.390Z,23.04
2022-08-05T22:32:21.609Z,22.76
2022-08-05T22:37:26.256Z,22.70
2022-08-05T22:42:57.913Z,22.67
2022-08-05T22:48:01.887Z,22.66
2022-08-05T22:53:05.751Z,22.65
2022-08-05T22:58:14.701Z,22.60
2022-08-05T23:03:19.876Z,22.47
2022-08-05T23:08:42.265Z,22.33
2022-08-05T23:13:45.167Z,22.23
2022-08-05T23:18:53.483Z,22.15
2022-08-05T23:23:57.798Z,21.98
2022-08-05T23:29:00.145Z,21.82
2022-08-05T23:34:06.768Z,21.67
2022-08-05T23:39:09.322Z,21.51
2022-08-05T23:44:13.436Z,21.39
2022-08-05T23:49:23.669Z,21.29
2022-08-05T23:54:38.073Z,21.22
